Time;durP1;ratioP1;P1;durP2;ratioP2;P2;SDS_P1;SDS_P2;PMS_P1;PMS_P2;Temp;Humidity;BMP_temperature;BMP_pressure;BME280_temperature;BME280_humidity;BME280_pressure;Samples;Min_cycle;Max_cycle;Signal;HPM_P1;HPM_P2
2021/08/17 00:00:33;;;;;;;20.57;9.50;;;14.50;90.60;;;;;;5054777;28;20469;-75
2021/08/17 00:02:59;;;;;;;18.47;10.87;;;14.50;90.60;;;;;;5054842;28;20445;-75
2021/08/17 00:05:26;;;;;;;17.83;9.70;;;14.50;90.70;;;;;;5054839;28;20450;-75
2021/08/17 00:07:53;;;;;;;20.60;11.20;;;14.50;90.80;;;;;;5054758;28;20484;-75
2021/08/17 00:10:20;;;;;;;20.67;11.00;;;14.50;90.80;;;;;;5054716;28;20449;-75
2021/08/17 00:12:48;;;;;;;17.57;11.20;;;14.50;90.80;;;;;;5054683;28;20449;-75
2021/08/17 00:15:16;;;;;;;25.83;13.30;;;14.60;90.90;;;;;;5054587;28;20536;-75
2021/08/17 00:17:43;;;;;;;19.40;12.57;;;14.50;91.10;;;;;;5054488;28;20469;-75
2021/08/17 00:20:12;;;;;;;24.27;13.13;;;14.50;91.10;;;;;;5054581;28;20453;-75
2021/08/17 00:22:39;;;;;;;22.60;11.60;;;14.50;91.10;;;;;;5054487;28;20446;-75
2021/08/17 00:25:08;;;;;;;22.00;14.07;;;14.50;91.30;;;;;;5054455;28;20449;-75
2021/08/17 00:27:35;;;;;;;26.20;13.67;;;14.50;91.20;;;;;;5054349;28;20861;-75
2021/08/17 00:30:01;;;;;;;26.40;15.10;;;14.50;91.40;;;;;;5054117;28;20784;-75
2021/08/17 00:32:29;;;;;;;33.03;13.87;;;14.50;91.40;;;;;;5054361;28;20446;-74
2021/08/17 00:34:56;;;;;;;23.93;13.70;;;14.50;91.40;;;;;;5054286;28;20450;-75
2021/08/17 00:37:23;;;;;;;26.30;15.67;;;14.50;91.40;;;;;;5054055;28;20577;-75
2021/08/17 00:39:50;;;;;;;32.37;17.03;;;14.50;91.40;;;;;;5054176;28;20815;-75
2021/08/17 00:42:16;;;;;;;29.67;16.30;;;14.40;91.40;;;;;;5054095;28;20441;-75
2021/08/17 00:44:43;;;;;;;27.20;16.77;;;14.50;91.60;;;;;;5053735;28;20959;-75
2021/08/17 00:47:12;;;;;;;35.07;17.43;;;14.50;91.60;;;;;;5054016;28;20492;-75
2021/08/17 00:49:40;;;;;;;28.30;16.50;;;14.50;91.60;;;;;;5053991;28;20452;-75
2021/08/17 00:52:07;;;;;;;31.13;18.90;;;14.50;91.50;;;;;;5053965;28;20445;-75
2021/08/17 00:54:36;;;;;;;35.43;19.60;;;14.50;91.60;;;;;;5053888;28;20450;-75
2021/08/17 00:57:04;;;;;;;36.07;18.40;;;14.50;91.70;;;;;;5053741;28;20485;-75
2021/08/17 00:59:31;;;;;;;36.50;19.30;;;14.50;91.70;;;;;;5053618;28;20466;-75
2021/08/17 01:01:57;;;;;;;36.90;20.67;;;14.50;91.80;;;;;;5053784;28;20508;-75
2021/08/17 01:04:24;;;;;;;37.00;20.27;;;14.50;91.80;;;;;;5053443;28;20932;-75
2021/08/17 01:06:52;;;;;;;34.73;19.87;;;14.50;91.80;;;;;;5053335;28;20860;-75
2021/08/17 01:09:19;;;;;;;37.27;20.50;;;14.50;92.00;;;;;;5053696;28;20495;-75
2021/08/17 01:11:48;;;;;;;39.47;21.87;;;14.50;92.00;;;;;;5053952;28;20437;-75
2021/08/17 01:14:15;;;;;;;39.23;22.17;;;14.60;92.00;;;;;;5053670;28;20446;-75
2021/08/17 01:16:42;;;;;;;40.27;21.70;;;14.60;92.20;;;;;;5053474;28;20488;-75
2021/08/17 01:19:10;;;;;;;45.27;23.10;;;14.60;92.40;;;;;;5053292;28;20445;-75
2021/08/17 01:21:36;;;;;;;41.60;22.40;;;14.60;92.30;;;;;;5053551;28;20802;-75
2021/08/17 01:24:05;;;;;;;41.07;21.60;;;14.60;92.40;;;;;;5053524;28;20472;-75
2021/08/17 01:26:33;;;;;;;38.90;22.50;;;14.60;92.50;;;;;;5053536;28;20521;-75
2021/08/17 01:29:00;;;;;;;41.10;23.20;;;14.60;92.40;;;;;;5053419;28;20456;-75
2021/08/17 01:31:27;;;;;;;43.40;25.40;;;14.60;92.20;;;;;;5053408;28;20805;-75
2021/08/17 01:33:54;;;;;;;39.80;22.43;;;14.60;92.30;;;;;;5053358;28;20454;-75
2021/08/17 01:36:20;;;;;;;38.70;22.60;;;14.60;92.30;;;;;;5052969;28;20895;-75
2021/08/17 01:38:48;;;;;;;40.03;24.43;;;14.60;92.30;;;;;;5053278;28;20469;-75
2021/08/17 01:41:15;;;;;;;45.60;24.10;;;14.60;92.40;;;;;;5053346;28;20446;-75
2021/08/17 01:43:44;;;;;;;41.37;22.20;;;14.50;92.30;;;;;;5056633;28;20442;-75
2021/08/17 01:46:11;;;;;;;40.10;22.43;;;14.50;92.30;;;;;;5057278;28;20441;-75
2021/08/17 01:48:37;;;;;;;40.87;23.67;;;14.60;92.50;;;;;;5057292;28;20473;-75
2021/08/17 01:51:04;;;;;;;48.27;26.00;;;14.50;92.40;;;;;;5057350;28;20456;-75
2021/08/17 01:53:33;;;;;;;41.93;23.00;;;14.60;92.50;;;;;;5057307;28;20449;-75
2021/08/17 01:56:07;;;;;;;43.10;23.77;;;14.50;92.30;;;;;;5057190;28;20481;-75
2021/08/17 01:58:34;;;;;;;40.03;23.33;;;14.50;92.30;;;;;;5057437;28;20468;-75
2021/08/17 02:01:02;;;;;;;47.43;27.03;;;14.50;92.40;;;;;;5057009;28;20455;-75
2021/08/17 02:03:29;;;;;;;42.47;25.07;;;14.50;92.50;;;;;;5057130;28;20453;-75
2021/08/17 02:05:56;;;;;;;48.30;26.17;;;14.50;92.30;;;;;;5057120;28;20440;-75
2021/08/17 02:08:22;;;;;;;43.00;24.40;;;14.50;92.50;;;;;;5057229;28;20499;-75
2021/08/17 02:10:49;;;;;;;46.70;23.53;;;14.50;92.50;;;;;;5057044;28;20437;-75
2021/08/17 02:13:17;;;;;;;51.93;25.17;;;14.50;92.50;;;;;;5056944;28;20468;-75
2021/08/17 02:15:44;;;;;;;45.73;26.20;;;14.50;92.50;;;;;;5056864;28;20537;-75
2021/08/17 02:18:12;;;;;;;45.83;24.73;;;14.50;92.40;;;;;;5056719;28;20489;-75
2021/08/17 02:20:39;;;;;;;46.87;26.70;;;14.50;92.40;;;;;;5056784;28;20453;-75
2021/08/17 02:23:06;;;;;;;55.47;26.90;;;14.50;92.50;;;;;;5056771;28;20450;-75
2021/08/17 02:25:33;;;;;;;41.37;23.57;;;14.50;92.40;;;;;;5056695;28;20445;-75
2021/08/17 02:28:00;;;;;;;41.47;24.97;;;14.50;92.50;;;;;;5056643;28;20503;-75
2021/08/17 02:30:27;;;;;;;43.00;23.67;;;14.40;92.60;;;;;;5056662;28;20437;-75
2021/08/17 02:32:54;;;;;;;42.87;25.13;;;14.40;92.50;;;;;;5056609;28;20528;-75
2021/08/17 02:35:23;;;;;;;43.00;23.77;;;14.40;92.60;;;;;;5056550;28;20453;-75
2021/08/17 02:37:50;;;;;;;42.10;23.67;;;14.40;92.60;;;;;;5056334;28;20496;-75
2021/08/17 02:40:16;;;;;;;45.87;24.50;;;14.40;92.50;;;;;;5056132;28;20808;-75
2021/08/17 02:42:43;;;;;;;41.10;23.50;;;14.30;92.60;;;;;;5056435;28;20453;-75
2021/08/17 02:45:11;;;;;;;42.43;23.00;;;14.30;92.60;;;;;;5056029;28;20939;-74
2021/08/17 02:47:37;;;;;;;47.43;23.17;;;14.40;92.70;;;;;;5056252;28;20492;-74
2021/08/17 02:50:05;;;;;;;41.47;24.07;;;14.40;92.70;;;;;;5056252;28;20456;-75
2021/08/17 02:52:33;;;;;;;46.67;23.47;;;14.30;92.60;;;;;;5056212;28;20867;-75
2021/08/17 02:55:00;;;;;;;43.13;23.90;;;14.30;92.50;;;;;;5056300;28;20442;-74
2021/08/17 02:57:27;;;;;;;46.23;24.37;;;14.30;92.50;;;;;;5055985;28;20532;-74
2021/08/17 02:59:54;;;;;;;44.60;23.77;;;14.30;92.50;;;;;;5055860;28;20462;-75
2021/08/17 03:02:21;;;;;;;43.60;23.30;;;14.30;92.60;;;;;;5056064;28;20445;-75
2021/08/17 03:04:47;;;;;;;44.97;24.30;;;14.40;92.70;;;;;;5055998;28;20445;-75
2021/08/17 03:07:14;;;;;;;42.43;24.00;;;14.40;92.70;;;;;;5055884;28;20845;-75
2021/08/17 03:09:42;;;;;;;49.63;25.00;;;14.40;92.60;;;;;;5056168;28;20449;-75
2021/08/17 03:12:09;;;;;;;44.20;23.97;;;14.40;92.60;;;;;;5055557;28;20927;-75
2021/08/17 03:14:36;;;;;;;45.57;23.83;;;14.30;92.50;;;;;;5055833;28;20468;-75
2021/08/17 03:17:03;;;;;;;41.93;23.57;;;14.30;92.70;;;;;;5055644;28;20489;-74
2021/08/17 03:19:29;;;;;;;39.40;22.73;;;14.30;92.70;;;;;;5055762;28;20433;-75
2021/08/17 03:21:56;;;;;;;41.20;23.27;;;14.30;92.70;;;;;;5055964;28;20441;-74
2021/08/17 03:24:23;;;;;;;42.33;21.93;;;14.40;92.70;;;;;;5055735;28;20883;-75
2021/08/17 03:26:51;;;;;;;47.37;23.13;;;14.30;92.50;;;;;;5055483;28;20453;-75
2021/08/17 03:29:19;;;;;;;45.40;24.63;;;14.30;92.60;;;;;;5055568;28;20471;-75
2021/08/17 03:31:46;;;;;;;45.20;25.17;;;14.30;92.60;;;;;;5055790;28;20814;-75
2021/08/17 03:34:13;;;;;;;39.23;23.53;;;14.30;92.50;;;;;;5055446;28;20453;-75
2021/08/17 03:36:40;;;;;;;37.73;22.93;;;14.30;92.60;;;;;;5055227;28;20555;-74
2021/08/17 03:39:06;;;;;;;48.00;25.60;;;14.30;92.80;;;;;;5055417;28;20435;-74
2021/08/17 03:41:33;;;;;;;44.60;22.97;;;14.30;93.20;;;;;;5055300;28;20450;-75
2021/08/17 03:44:01;;;;;;;36.87;23.20;;;14.30;92.90;;;;;;5055506;28;20442;-75
2021/08/17 03:46:28;;;;;;;39.70;23.93;;;14.30;92.90;;;;;;5055255;28;20465;-75
2021/08/17 03:48:55;;;;;;;41.63;22.67;;;14.30;93.10;;;;;;5055112;28;20465;-75
2021/08/17 03:51:22;;;;;;;48.00;24.37;;;14.30;93.20;;;;;;5055152;28;20804;-75
2021/08/17 03:53:49;;;;;;;39.00;23.00;;;14.30;93.20;;;;;;5054768;28;20993;-75
2021/08/17 03:56:15;;;;;;;46.07;23.07;;;14.30;93.20;;;;;;5055035;28;20449;-75
2021/08/17 03:58:42;;;;;;;39.73;22.07;;;14.20;93.30;;;;;;5054780;28;20481;-75
2021/08/17 04:01:10;;;;;;;42.03;23.30;;;14.20;93.40;;;;;;5054979;28;20433;-75
2021/08/17 04:03:37;;;;;;;38.90;22.50;;;14.20;93.40;;;;;;5054918;28;20464;-75
2021/08/17 04:06:04;;;;;;;40.57;21.77;;;14.20;93.50;;;;;;5054352;28;20433;-75
2021/08/17 04:08:30;;;;;;;39.87;22.27;;;14.20;93.50;;;;;;5054656;28;20480;-75
2021/08/17 04:10:57;;;;;;;41.70;22.20;;;14.20;93.50;;;;;;5054812;28;20437;-74
2021/08/17 04:13:24;;;;;;;39.77;22.87;;;14.20;93.60;;;;;;5054366;28;20437;-75
2021/08/17 04:15:51;;;;;;;43.73;23.67;;;14.20;93.60;;;;;;5054293;28;20855;-75
2021/08/17 04:18:19;;;;;;;41.17;20.70;;;14.20;93.60;;;;;;5054288;28;20489;-75
2021/08/17 04:20:45;;;;;;;38.73;21.60;;;14.20;93.50;;;;;;5056439;28;20464;-74
2021/08/17 04:23:12;;;;;;;35.17;21.20;;;14.20;93.40;;;;;;5054930;28;20441;-75
2021/08/17 04:25:39;;;;;;;39.60;22.63;;;14.30;93.50;;;;;;5054518;28;20448;-74
2021/08/17 04:28:06;;;;;;;38.17;21.53;;;14.30;93.50;;;;;;5054529;28;20819;-75
2021/08/17 04:30:32;;;;;;;40.10;21.70;;;14.30;93.50;;;;;;5054464;28;20453;-75
2021/08/17 04:32:59;;;;;;;39.57;21.40;;;14.30;93.40;;;;;;5053963;28;20963;-75
2021/08/17 04:35:27;;;;;;;42.67;21.90;;;14.30;93.40;;;;;;5054338;28;20434;-75
2021/08/17 04:37:54;;;;;;;35.80;21.53;;;14.30;93.40;;;;;;5053859;28;20493;-75
2021/08/17 04:40:21;;;;;;;36.37;22.00;;;14.30;93.40;;;;;;5054193;28;20458;-75
2021/08/17 04:42:47;;;;;;;39.50;20.43;;;14.40;93.50;;;;;;5054225;28;20445;-77
2021/08/17 04:45:14;;;;;;;38.87;21.33;;;14.40;93.50;;;;;;5054780;28;20457;-78
2021/08/17 04:47:45;;;;;;;37.87;21.13;;;14.40;93.40;;;;;;5054052;28;20458;-75
2021/08/17 04:50:12;;;;;;;42.13;22.00;;;14.40;93.40;;;;;;5054089;28;20866;-75
2021/08/17 04:52:40;;;;;;;37.87;21.53;;;14.30;93.30;;;;;;5053690;28;21113;-75
2021/08/17 04:55:08;;;;;;;43.23;21.90;;;14.40;93.40;;;;;;5053680;28;20895;-75
2021/08/17 04:57:51;;;;;;;36.47;20.70;;;14.40;93.30;;;;;;5054018;28;20485;-76
2021/08/17 05:00:18;;;;;;;37.50;20.77;;;14.40;93.40;;;;;;5053609;28;20488;-75
2021/08/17 05:02:45;;;;;;;37.90;19.80;;;14.50;93.40;;;;;;5053830;28;20441;-75
2021/08/17 05:05:12;;;;;;;36.23;20.87;;;14.50;93.30;;;;;;5053842;28;20433;-75
2021/08/17 05:07:42;;;;;;;39.53;20.67;;;14.50;93.20;;;;;;5053721;28;20458;-75
2021/08/17 05:10:10;;;;;;;37.87;21.70;;;14.60;93.30;;;;;;5054039;28;20419;-75
2021/08/17 05:12:38;;;;;;;36.83;21.17;;;14.70;93.30;;;;;;5053430;28;20429;-75
2021/08/17 05:15:07;;;;;;;34.70;19.90;;;14.60;93.10;;;;;;5053857;28;20452;-75
2021/08/17 05:17:34;;;;;;;39.23;20.87;;;14.70;93.30;;;;;;5052614;28;20477;-75
2021/08/17 05:20:02;;;;;;;46.37;22.70;;;14.70;93.30;;;;;;5053540;28;20452;-75
2021/08/17 05:22:29;;;;;;;35.87;20.90;;;14.80;93.30;;;;;;5053461;28;20958;-75
2021/08/17 05:24:57;;;;;;;40.97;20.50;;;14.80;93.10;;;;;;5053486;28;20453;-76
2021/08/17 05:27:24;;;;;;;39.77;23.20;;;14.80;93.20;;;;;;5053432;28;20804;-75
2021/08/17 05:29:52;;;;;;;41.83;21.50;;;14.80;93.10;;;;;;5053470;28;20442;-75
2021/08/17 05:32:19;;;;;;;40.13;23.13;;;14.90;93.10;;;;;;5053467;28;20445;-75
2021/08/17 05:34:46;;;;;;;42.33;21.30;;;14.90;93.00;;;;;;5053397;28;20452;-75
2021/08/17 05:37:14;;;;;;;49.30;23.40;;;15.00;93.00;;;;;;5053132;28;20485;-74
2021/08/17 05:39:41;;;;;;;37.83;21.10;;;15.00;92.70;;;;;;5053100;28;20434;-75
2021/08/17 05:42:09;;;;;;;41.80;21.10;;;15.00;92.70;;;;;;5053039;28;20966;-75
2021/08/17 05:44:37;;;;;;;42.10;21.27;;;15.10;92.90;;;;;;5053007;28;20450;-75
2021/08/17 05:47:04;;;;;;;37.33;20.67;;;15.10;92.70;;;;;;5053160;28;20470;-75
2021/08/17 05:49:31;;;;;;;40.07;20.80;;;15.20;92.80;;;;;;5053282;28;20442;-75
2021/08/17 05:51:57;;;;;;;40.53;22.90;;;15.30;92.90;;;;;;5052899;28;20952;-75
2021/08/17 05:54:24;;;;;;;47.13;23.30;;;15.30;92.50;;;;;;5052984;28;20919;-75
2021/08/17 05:56:51;;;;;;;37.53;21.70;;;15.40;92.60;;;;;;5053100;28;20467;-75
2021/08/17 05:59:19;;;;;;;40.50;21.00;;;15.40;92.50;;;;;;5053117;28;20477;-75
2021/08/17 06:01:46;;;;;;;39.70;21.20;;;15.50;92.50;;;;;;5052880;28;20904;-75
2021/08/17 06:04:13;;;;;;;37.77;22.53;;;15.50;92.50;;;;;;5053167;28;20515;-75
2021/08/17 06:06:39;;;;;;;41.07;22.60;;;15.50;92.30;;;;;;5053016;28;20453;-75
2021/08/17 06:09:06;;;;;;;43.00;23.93;;;15.70;92.30;;;;;;5053110;28;20422;-75
2021/08/17 06:11:33;;;;;;;45.40;22.00;;;15.80;92.30;;;;;;5053228;28;20429;-75
2021/08/17 06:13:59;;;;;;;45.00;21.13;;;15.90;92.20;;;;;;5052706;28;20970;-76
2021/08/17 06:16:27;;;;;;;40.77;20.67;;;15.90;91.80;;;;;;5053073;28;20422;-75
2021/08/17 06:18:55;;;;;;;36.60;21.03;;;16.00;91.60;;;;;;5052820;28;20532;-75
2021/08/17 06:21:22;;;;;;;37.80;21.57;;;16.00;91.70;;;;;;5052935;28;20445;-75
2021/08/17 06:23:48;;;;;;;32.33;19.70;;;16.10;91.60;;;;;;5053005;28;20434;-76
2021/08/17 06:26:15;;;;;;;39.73;20.77;;;16.20;91.60;;;;;;5052577;28;20437;-75
2021/08/17 06:28:42;;;;;;;36.07;21.50;;;16.30;91.50;;;;;;5054495;28;20473;-76
2021/08/17 06:31:09;;;;;;;41.20;20.40;;;16.40;91.30;;;;;;5056643;28;20441;-76
2021/08/17 06:33:37;;;;;;;31.97;19.33;;;16.50;91.20;;;;;;5056563;28;20449;-76
2021/08/17 06:36:04;;;;;;;37.50;21.70;;;16.60;91.00;;;;;;5056595;28;20437;-76
2021/08/17 06:38:31;;;;;;;37.53;20.10;;;16.80;90.90;;;;;;5056391;28;20485;-76
2021/08/17 06:40:58;;;;;;;40.30;22.00;;;17.00;90.80;;;;;;5056564;28;20441;-76
2021/08/17 06:43:28;;;;;;;37.67;21.07;;;17.10;90.70;;;;;;5056480;28;20468;-76
2021/08/17 06:45:55;;;;;;;33.33;20.60;;;17.20;89.60;;;;;;5056481;28;20425;-76
2021/08/17 06:48:21;;;;;;;37.03;20.57;;;17.20;89.20;;;;;;5056310;28;20465;-76
2021/08/17 06:50:49;;;;;;;27.63;18.40;;;17.30;89.40;;;;;;5056430;28;20422;-76
2021/08/17 06:53:16;;;;;;;36.10;20.20;;;17.40;89.40;;;;;;5056347;28;20794;-76
2021/08/17 06:55:43;;;;;;;33.87;20.63;;;17.30;88.50;;;;;;5056234;28;20797;-76
2021/08/17 06:58:13;;;;;;;40.80;22.03;;;17.30;89.20;;;;;;5056117;28;20534;-76
2021/08/17 07:00:40;;;;;;;37.90;21.53;;;17.30;89.00;;;;;;5055885;28;20897;-76
2021/08/17 07:03:07;;;;;;;33.70;19.30;;;17.30;89.10;;;;;;5056442;28;20430;-76
2021/08/17 07:05:34;;;;;;;35.57;20.97;;;17.30;88.50;;;;;;5056055;28;20923;-76
2021/08/17 07:08:02;;;;;;;32.70;20.20;;;17.30;88.60;;;;;;5056067;28;20465;-76
2021/08/17 07:10:29;;;;;;;36.43;20.70;;;17.40;88.30;;;;;;5056298;28;20426;-76
2021/08/17 07:12:56;;;;;;;36.37;20.17;;;17.50;88.00;;;;;;5055908;28;20851;-76
2021/08/17 07:15:23;;;;;;;38.60;19.50;;;17.50;87.70;;;;;;5055664;28;20452;-76
2021/08/17 07:17:49;;;;;;;34.07;20.10;;;17.60;86.90;;;;;;5055917;28;20492;-76
2021/08/17 07:20:17;;;;;;;32.13;20.47;;;17.60;87.60;;;;;;5055777;28;20450;-76
2021/08/17 07:22:44;;;;;;;36.17;20.50;;;17.70;87.90;;;;;;5055747;28;20790;-76
2021/08/17 07:25:12;;;;;;;33.80;20.37;;;17.80;87.50;;;;;;5055363;28;20452;-76
2021/08/17 07:27:40;;;;;;;31.80;18.97;;;17.90;87.40;;;;;;5055568;28;20795;-76
2021/08/17 07:30:11;;;;;;;35.17;20.70;;;17.90;86.10;;;;;;5055576;28;20426;-76
2021/08/17 07:32:38;;;;;;;37.93;20.60;;;17.80;84.10;;;;;;5055533;28;20452;-76
2021/08/17 07:35:06;;;;;;;27.90;19.70;;;17.80;86.20;;;;;;5055648;28;20434;-76
2021/08/17 07:37:33;;;;;;;31.30;19.17;;;17.90;85.80;;;;;;5055345;28;20501;-76
2021/08/17 07:40:00;;;;;;;34.13;20.77;;;17.80;84.20;;;;;;5054466;28;20449;-76
2021/08/17 07:42:28;;;;;;;29.00;18.73;;;17.80;84.60;;;;;;5055402;28;20515;-76
2021/08/17 07:44:54;;;;;;;35.27;20.50;;;17.80;84.50;;;;;;5055384;28;20472;-76
2021/08/17 07:47:21;;;;;;;26.77;18.33;;;17.90;85.50;;;;;;5055175;28;20470;-76
2021/08/17 07:49:48;;;;;;;32.23;19.80;;;18.00;84.70;;;;;;5054873;28;20928;-76
2021/08/17 07:52:15;;;;;;;32.97;18.57;;;18.10;84.20;;;;;;5055413;28;20511;-76
2021/08/17 07:54:41;;;;;;;28.20;19.03;;;18.30;84.10;;;;;;5055199;28;20445;-76
2021/08/17 07:57:08;;;;;;;40.50;19.93;;;18.50;85.20;;;;;;5055143;28;20466;-76
2021/08/17 07:59:36;;;;;;;27.90;17.93;;;18.70;82.70;;;;;;5054792;28;20536;-76
2021/08/17 08:02:04;;;;;;;30.03;18.57;;;18.80;80.80;;;;;;5054885;28;20452;-76
2021/08/17 08:04:31;;;;;;;30.33;17.27;;;18.90;81.70;;;;;;5054655;28;20817;-76
2021/08/17 08:06:57;;;;;;;25.17;16.53;;;18.80;79.70;;;;;;5055123;28;20454;-76
2021/08/17 08:09:24;;;;;;;27.60;17.23;;;18.90;80.20;;;;;;5054601;28;20931;-76
2021/08/17 08:11:51;;;;;;;27.80;18.27;;;18.90;80.60;;;;;;5054880;28;20441;-76
2021/08/17 08:14:18;;;;;;;26.50;17.57;;;19.00;80.20;;;;;;5054703;28;20445;-76
2021/08/17 08:16:46;;;;;;;27.87;17.70;;;19.10;79.90;;;;;;5054638;28;20446;-76
2021/08/17 08:19:13;;;;;;;25.90;16.60;;;19.10;81.00;;;;;;5054571;28;20488;-76
2021/08/17 08:21:39;;;;;;;33.10;18.30;;;19.20;80.50;;;;;;5054582;28;20449;-76
2021/08/17 08:24:06;;;;;;;26.80;15.23;;;19.30;80.10;;;;;;5054533;28;20831;-76
2021/08/17 08:26:33;;;;;;;24.20;16.40;;;19.40;78.30;;;;;;5054182;28;20453;-76
2021/08/17 08:29:00;;;;;;;24.17;16.20;;;19.40;78.60;;;;;;5054355;28;20464;-76
2021/08/17 08:31:26;;;;;;;29.90;17.70;;;19.40;77.20;;;;;;5054390;28;20797;-77
2021/08/17 08:33:54;;;;;;;27.33;16.70;;;19.20;77.60;;;;;;5054410;28;20587;-76
2021/08/17 08:36:21;;;;;;;29.10;17.63;;;19.30;79.00;;;;;;5054524;28;20442;-76
2021/08/17 08:38:48;;;;;;;27.50;17.70;;;19.30;79.60;;;;;;5054573;28;20485;-77
2021/08/17 08:41:17;;;;;;;25.37;18.10;;;19.50;78.90;;;;;;5054125;28;20904;-76
2021/08/17 08:43:43;;;;;;;24.63;16.73;;;19.70;77.50;;;;;;5054106;28;20996;-77
2021/08/17 08:46:15;;;;;;;23.47;16.03;;;19.80;77.20;;;;;;5054278;28;20503;-77
2021/08/17 08:48:45;;;;;;;24.37;15.97;;;20.00;76.80;;;;;;5054271;28;20468;-76
2021/08/17 08:51:13;;;;;;;21.17;15.20;;;20.00;75.30;;;;;;5053924;28;20437;-76
2021/08/17 08:53:40;;;;;;;22.30;16.57;;;20.00;75.40;;;;;;5054132;28;20430;-76
2021/08/17 08:56:07;;;;;;;23.07;15.17;;;20.10;74.40;;;;;;5054055;28;20446;-76
2021/08/17 08:58:34;;;;;;;34.93;15.40;;;20.10;73.70;;;;;;5054124;28;20481;-76
2021/08/17 09:01:01;;;;;;;21.73;13.80;;;20.20;75.00;;;;;;5053809;28;20464;-77
2021/08/17 09:03:41;;;;;;;19.63;14.73;;;20.30;73.60;;;;;;5054183;28;20430;-77
2021/08/17 09:06:18;;;;;;;22.67;15.30;;;20.60;74.20;;;;;;5054130;28;20484;-76
2021/08/17 09:08:45;;;;;;;24.40;14.57;;;20.80;71.80;;;;;;5053716;28;20830;-77
2021/08/17 09:11:17;;;;;;;22.10;14.70;;;20.90;71.50;;;;;;5053894;28;20438;-76
2021/08/17 09:13:43;;;;;;;24.27;14.60;;;21.00;71.50;;;;;;5053357;28;20452;-76
2021/08/17 09:16:24;;;;;;;25.60;16.17;;;21.10;71.50;;;;;;5053502;28;20913;-76
2021/08/17 09:18:52;;;;;;;20.70;14.40;;;21.30;71.80;;;;;;5053532;28;20489;-76
2021/08/17 09:21:32;;;;;;;27.00;15.40;;;21.40;68.70;;;;;;5053413;28;20904;-76
2021/08/17 09:23:59;;;;;;;22.00;15.13;;;21.40;69.00;;;;;;5053336;28;20907;-76
2021/08/17 09:26:28;;;;;;;26.73;16.00;;;21.30;70.00;;;;;;5053624;28;20445;-76
2021/08/17 09:28:57;;;;;;;25.10;16.10;;;21.10;70.40;;;;;;5053472;28;20466;-76
2021/08/17 09:31:35;;;;;;;22.70;15.40;;;21.00;69.60;;;;;;5053742;28;20473;-77
2021/08/17 09:34:03;;;;;;;22.93;15.33;;;20.70;68.00;;;;;;5053702;28;20430;-77
2021/08/17 09:36:37;;;;;;;19.93;14.30;;;20.70;69.00;;;;;;5053526;28;20426;-76
2021/08/17 09:39:05;;;;;;;26.10;14.90;;;20.70;70.60;;;;;;5054117;28;20983;-76
2021/08/17 09:41:33;;;;;;;23.23;15.47;;;20.70;69.00;;;;;;5053398;28;20437;-76
2021/08/17 09:44:02;;;;;;;18.77;14.20;;;20.60;68.90;;;;;;5053398;28;20422;-76
2021/08/17 09:46:30;;;;;;;23.67;16.23;;;20.50;68.60;;;;;;5053346;28;20436;-76
2021/08/17 09:48:58;;;;;;;21.00;16.17;;;20.50;69.70;;;;;;5052948;28;20496;-77
2021/08/17 09:51:36;;;;;;;21.83;15.03;;;20.60;69.30;;;;;;5053116;28;20892;-76
2021/08/17 09:54:14;;;;;;;19.60;14.33;;;20.60;69.00;;;;;;5053486;28;20426;-76
2021/08/17 09:56:40;;;;;;;23.47;14.80;;;20.60;68.60;;;;;;5053405;28;20847;-76
2021/08/17 09:59:07;;;;;;;27.60;16.20;;;20.60;69.80;;;;;;5053059;28;20496;-77
2021/08/17 10:01:36;;;;;;;26.53;16.10;;;20.50;69.30;;;;;;5053749;28;20806;-77
2021/08/17 10:04:03;;;;;;;21.63;16.10;;;20.40;67.70;;;;;;5055354;28;20544;-76
2021/08/17 10:06:30;;;;;;;20.17;14.33;;;20.20;68.20;;;;;;5057482;28;20456;-76
2021/08/17 10:08:59;;;;;;;20.17;14.43;;;19.90;68.90;;;;;;5057064;28;20474;-76
2021/08/17 10:11:26;;;;;;;24.03;14.70;;;19.80;68.60;;;;;;5057150;28;20776;-77
2021/08/17 10:13:53;;;;;;;22.10;16.47;;;19.70;70.00;;;;;;5057466;28;20442;-77
2021/08/17 10:16:20;;;;;;;24.47;15.73;;;19.50;69.10;;;;;;5057310;28;20445;-76
2021/08/17 10:18:47;;;;;;;23.90;15.10;;;19.50;69.60;;;;;;5056789;28;20485;-76
2021/08/17 10:21:18;;;;;;;23.90;14.57;;;19.60;70.90;;;;;;5056962;28;20445;-76
2021/08/17 10:23:45;;;;;;;19.83;14.77;;;19.60;70.40;;;;;;5055849;28;20472;-76
2021/08/17 10:26:29;;;;;;;23.00;17.07;;;19.60;70.50;;;;;;5056931;28;20452;-76
2021/08/17 10:28:57;;;;;;;22.50;14.43;;;19.60;70.50;;;;;;5056399;28;20974;-77
2021/08/17 10:31:27;;;;;;;24.50;15.73;;;19.60;70.90;;;;;;5056689;28;20810;-76
2021/08/17 10:34:00;;;;;;;24.20;15.37;;;19.60;70.60;;;;;;5058337;28;20491;-77
2021/08/17 10:36:34;;;;;;;23.40;14.07;;;19.60;71.30;;;;;;5059069;28;20839;-77
2021/08/17 10:39:01;;;;;;;23.60;15.20;;;19.70;70.70;;;;;;5056394;28;20485;-77
2021/08/17 10:41:34;;;;;;;18.27;12.67;;;19.70;70.70;;;;;;5056981;28;20445;-77
2021/08/17 10:44:11;;;;;;;22.13;14.20;;;19.70;70.40;;;;;;5057049;28;20444;-77
2021/08/17 10:46:53;;;;;;;18.60;13.13;;;19.80;70.40;;;;;;5057152;28;20433;-77
2021/08/17 10:49:44;;;;;;;16.03;11.93;;;19.70;70.70;;;;;;5056596;28;20430;-77
2021/08/17 10:52:25;;;;;;;18.30;13.60;;;19.70;69.60;;;;;;5057400;28;20433;-77
2021/08/17 10:55:28;;;;;;;19.10;12.30;;;19.60;69.10;;;;;;5056821;28;20927;-77
2021/08/17 10:57:59;;;;;;;16.80;11.37;;;19.50;70.60;;;;;;5056688;28;20465;-77
2021/08/17 11:00:45;;;;;;;16.93;11.80;;;19.30;68.30;;;;;;5056241;28;20546;-77
2021/08/17 11:03:12;;;;;;;15.40;11.30;;;19.20;70.20;;;;;;5056358;28;20446;-77
2021/08/17 11:05:52;;;;;;;18.23;12.37;;;19.10;70.90;;;;;;5056478;28;20426;-77
2021/08/17 11:08:36;;;;;;;19.33;12.60;;;19.00;71.60;;;;;;5056226;28;20472;-77
2021/08/17 11:11:05;;;;;;;19.10;12.17;;;18.90;72.50;;;;;;5056004;28;20488;-76
2021/08/17 11:13:33;;;;;;;33.63;11.60;;;18.90;72.50;;;;;;5058210;28;20441;-79
2021/08/17 11:16:07;;;;;;;14.40;9.80;;;18.80;71.80;;;;;;5058052;28;20450;-79
2021/08/17 11:18:49;;;;;;;13.37;10.50;;;18.70;72.00;;;;;;5058463;28;20523;-79
2021/08/17 11:21:29;;;;;;;19.87;10.93;;;18.70;72.00;;;;;;5057742;28;20841;-78
2021/08/17 11:24:10;;;;;;;15.90;9.97;;;18.60;72.70;;;;;;5058062;28;20429;-79
2021/08/17 11:26:37;;;;;;;13.53;10.87;;;18.50;71.70;;;;;;5057211;28;20453;-79
2021/08/17 11:29:06;;;;;;;14.77;10.03;;;18.40;72.70;;;;;;5058136;28;20457;-78
2021/08/17 11:31:32;;;;;;;14.17;10.47;;;18.40;72.70;;;;;;5057424;28;20441;-78
2021/08/17 11:34:17;;;;;;;11.60;8.80;;;18.40;72.70;;;;;;5057291;28;20797;-78
2021/08/17 11:36:51;;;;;;;12.97;9.17;;;18.30;71.50;;;;;;5057268;28;20449;-78
2021/08/17 11:39:19;;;;;;;12.70;9.33;;;18.30;72.10;;;;;;5057545;28;20837;-79
2021/08/17 11:41:45;;;;;;;12.27;10.20;;;18.30;71.70;;;;;;5056317;28;20948;-78
2021/08/17 11:44:15;;;;;;;12.30;9.77;;;18.30;72.80;;;;;;5056998;28;20449;-78
2021/08/17 11:46:42;;;;;;;12.13;9.33;;;18.30;72.50;;;;;;5056580;28;20445;-77
2021/08/17 11:49:28;;;;;;;15.63;11.60;;;18.40;73.00;;;;;;5056177;28;20465;-79
2021/08/17 11:52:04;;;;;;;17.97;10.43;;;18.50;72.80;;;;;;5056411;28;20426;-78
2021/08/17 11:54:32;;;;;;;15.33;10.07;;;18.60;73.10;;;;;;5056633;28;20437;-78
2021/08/17 11:57:01;;;;;;;13.30;10.10;;;18.70;73.50;;;;;;5056600;28;20430;-79
2021/08/17 11:59:40;;;;;;;14.30;11.20;;;18.80;71.70;;;;;;5056390;28;20484;-78
2021/08/17 12:02:08;;;;;;;18.33;12.03;;;18.80;71.40;;;;;;5056387;28;20425;-78
2021/08/17 12:04:34;;;;;;;13.73;10.83;;;18.90;71.60;;;;;;5056030;28;20445;-78
2021/08/17 12:07:13;;;;;;;15.70;11.47;;;18.90;72.10;;;;;;5056153;28;20448;-78
2021/08/17 12:09:41;;;;;;;15.43;11.90;;;19.00;71.10;;;;;;5056195;28;20445;-78
2021/08/17 12:12:10;;;;;;;15.93;10.50;;;18.90;71.40;;;;;;5056298;28;20454;-78
2021/08/17 12:14:38;;;;;;;14.83;10.90;;;18.90;70.90;;;;;;5056271;28;20449;-78
2021/08/17 12:17:07;;;;;;;17.23;10.97;;;18.90;71.40;;;;;;5055721;28;20466;-79
2021/08/17 12:19:34;;;;;;;16.10;10.27;;;18.90;71.30;;;;;;5056090;28;20481;-78
2021/08/17 12:22:01;;;;;;;14.27;10.80;;;18.90;71.60;;;;;;5056045;28;20449;-78
2021/08/17 12:24:30;;;;;;;15.00;10.80;;;18.90;69.40;;;;;;5056006;28;20442;-78
2021/08/17 12:26:59;;;;;;;13.67;10.33;;;18.90;69.10;;;;;;5055415;28;20450;-78
2021/08/17 12:29:26;;;;;;;12.50;8.80;;;18.90;70.00;;;;;;5055706;28;20448;-78
2021/08/17 12:31:55;;;;;;;11.77;8.80;;;18.90;71.20;;;;;;5055675;28;20453;-78
2021/08/17 12:34:23;;;;;;;12.37;8.93;;;18.90;71.20;;;;;;5055273;28;20459;-77